Time;durP1;ratioP1;P1;durP2;ratioP2;P2;SDS_P1;SDS_P2;PMS_P1;PMS_P2;Temp;Humidity;BMP_temperature;BMP_pressure;BME280_temperature;BME280_humidity;BME280_pressure;Samples;Min_cycle;Max_cycle;Signal;HPM_P1;HPM_P2
2023/07/20 00:01:38;;;;;;;0.00;0.00;;;16.10;55.80;;;;;;5032213;28;20212;-53
2023/07/20 00:04:08;;;;;;;0.05;0.05;;;16.10;56.40;;;;;;5033191;28;20196;-50
2023/07/20 00:06:41;;;;;;;0.10;0.10;;;16.10;55.80;;;;;;5048567;28;20561;-52
2023/07/20 00:09:11;;;;;;;0.20;0.20;;;16.10;55.80;;;;;;5033718;28;20197;-50
2023/07/20 00:11:42;;;;;;;0.00;0.00;;;16.10;56.50;;;;;;5045930;28;20219;-53
2023/07/20 00:14:13;;;;;;;0.10;0.10;;;16.10;55.90;;;;;;5052298;28;20200;-52
2023/07/20 00:16:43;;;;;;;0.10;0.10;;;16.10;55.80;;;;;;5052656;28;20212;-50
2023/07/20 00:19:14;;;;;;;0.10;0.10;;;16.10;55.90;;;;;;5033286;28;20196;-55
2023/07/20 00:21:46;;;;;;;0.10;0.10;;;16.10;56.00;;;;;;5033375;28;20653;-55
2023/07/20 00:24:17;;;;;;;0.10;0.10;;;16.20;56.00;;;;;;5032525;28;20240;-54
2023/07/20 00:26:48;;;;;;;0.10;0.10;;;16.20;56.10;;;;;;5032875;28;20660;-54
2023/07/20 00:29:19;;;;;;;0.10;0.10;;;16.20;56.10;;;;;;5032319;28;20193;-52
2023/07/20 00:31:49;;;;;;;0.05;0.05;;;16.20;56.10;;;;;;5032426;28;20232;-54
2023/07/20 00:34:20;;;;;;;0.10;0.10;;;16.20;56.00;;;;;;5037744;28;20209;-50
2023/07/20 00:36:52;;;;;;;0.10;0.10;;;16.20;56.00;;;;;;5051582;28;20636;-52
2023/07/20 00:39:23;;;;;;;0.00;0.00;;;16.20;56.60;;;;;;5051856;28;20322;-56
2023/07/20 00:41:54;;;;;;;0.10;0.10;;;16.20;56.00;;;;;;5052173;28;20198;-55
2023/07/20 00:44:25;;;;;;;0.10;0.10;;;16.20;56.00;;;;;;5041785;28;20656;-55
2023/07/20 00:46:55;;;;;;;0.10;0.10;;;16.20;56.00;;;;;;5034938;28;20229;-51
2023/07/20 00:49:26;;;;;;;0.10;0.10;;;16.20;56.00;;;;;;5051957;28;20192;-52
2023/07/20 00:51:59;;;;;;;0.10;0.10;;;16.20;55.90;;;;;;5048576;28;20702;-51
2023/07/20 00:54:29;;;;;;;0.10;0.10;;;16.20;56.00;;;;;;5040250;28;20207;-54
2023/07/20 00:57:01;;;;;;;0.08;0.08;;;16.20;56.10;;;;;;5049638;28;20691;-52
2023/07/20 00:59:31;;;;;;;0.10;0.10;;;16.20;56.20;;;;;;5031512;28;20196;-51
2023/07/20 01:02:02;;;;;;;0.10;0.10;;;16.30;56.40;;;;;;5031827;28;20275;-54
2023/07/20 01:04:33;;;;;;;0.17;0.17;;;16.30;56.40;;;;;;5031642;28;20559;-54
2023/07/20 01:07:13;;;;;;;0.10;0.10;;;16.30;56.50;;;;;;5051709;28;20280;-53
2023/07/20 01:09:50;;;;;;;0.08;0.08;;;16.30;56.50;;;;;;5039136;28;20196;-53
2023/07/20 01:12:25;;;;;;;0.10;0.10;;;16.30;56.50;;;;;;5032314;28;20231;-53
2023/07/20 01:14:56;;;;;;;0.05;0.05;;;16.30;56.40;;;;;;5051593;28;20210;-51
2023/07/20 01:17:27;;;;;;;0.00;0.00;;;16.30;56.40;;;;;;5046189;28;20711;-49
2023/07/20 01:19:58;;;;;;;0.10;0.10;;;16.30;56.40;;;;;;5035171;28;20207;-49
2023/07/20 01:22:56;;;;;;;0.10;0.10;;;16.30;56.40;;;;;;5036064;28;20196;-47
2023/07/20 01:25:44;;;;;;;0.00;0.00;;;16.30;56.30;;;;;;5041641;28;20698;-49
2023/07/20 01:28:37;;;;;;;0.10;0.10;;;16.30;56.30;;;;;;5043753;28;20212;-49
2023/07/20 01:31:25;;;;;;;0.10;0.10;;;16.30;56.20;;;;;;5031318;28;20699;-52
2023/07/20 01:33:59;;;;;;;0.10;0.10;;;16.30;56.20;;;;;;5030985;28;20203;-48
2023/07/20 01:36:33;;;;;;;0.10;0.10;;;16.30;56.20;;;;;;5044079;28;20245;-49
2023/07/20 01:39:04;;;;;;;0.05;0.05;;;16.30;56.40;;;;;;5038222;28;20196;-50
2023/07/20 01:41:35;;;;;;;0.10;0.10;;;16.30;56.40;;;;;;5030447;28;20200;-50
2023/07/20 01:44:07;;;;;;;0.10;0.10;;;16.30;56.50;;;;;;5032177;28;20335;-51
2023/07/20 01:46:40;;;;;;;0.10;0.10;;;16.30;56.50;;;;;;5030498;28;20224;-51
2023/07/20 01:49:10;;;;;;;0.10;0.10;;;16.30;56.60;;;;;;5031952;28;20266;-49
2023/07/20 01:51:41;;;;;;;0.00;0.00;;;16.30;56.50;;;;;;5031494;28;20223;-49
2023/07/20 01:54:12;;;;;;;0.10;0.10;;;16.30;56.60;;;;;;5031491;28;20679;-47
2023/07/20 01:56:42;;;;;;;0.10;0.10;;;16.30;56.60;;;;;;5034461;28;20220;-50
2023/07/20 01:59:13;;;;;;;0.10;0.10;;;16.30;56.90;;;;;;5050425;28;20195;-50
2023/07/20 02:01:48;;;;;;;0.10;0.10;;;16.30;57.00;;;;;;5042442;28;20692;-50
2023/07/20 02:04:18;;;;;;;0.10;0.10;;;16.30;56.90;;;;;;5042786;28;20199;-48
2023/07/20 02:06:49;;;;;;;0.10;0.10;;;16.30;56.90;;;;;;5049770;28;20231;-50
2023/07/20 02:09:20;;;;;;;0.10;0.10;;;16.30;56.90;;;;;;5050870;28;20643;-48
2023/07/20 02:11:50;;;;;;;0.00;0.00;;;16.30;56.80;;;;;;5038187;28;20255;-52
2023/07/20 02:14:22;;;;;;;0.10;0.10;;;16.40;56.70;;;;;;5039637;28;20196;-52
2023/07/20 02:16:57;;;;;;;0.10;0.10;;;16.40;56.80;;;;;;5047730;28;20219;-48
2023/07/20 02:19:29;;;;;;;0.10;0.10;;;16.30;56.60;;;;;;5050668;28;20207;-51
2023/07/20 02:21:59;;;;;;;0.10;0.10;;;16.30;56.60;;;;;;5050080;28;20192;-53
2023/07/20 02:24:30;;;;;;;0.10;0.10;;;16.30;56.70;;;;;;5039327;28;20232;-54
2023/07/20 02:27:01;;;;;;;0.10;0.10;;;16.30;56.80;;;;;;5046573;28;20638;-47
2023/07/20 02:29:31;;;;;;;0.03;0.03;;;16.40;56.80;;;;;;5038046;28;20696;-48
2023/07/20 02:32:04;;;;;;;0.10;0.10;;;16.40;56.80;;;;;;5048877;28;20223;-52
2023/07/20 02:34:35;;;;;;;0.10;0.10;;;16.30;56.80;;;;;;5050585;28;20536;-52
2023/07/20 02:37:05;;;;;;;0.10;0.10;;;16.30;56.80;;;;;;5050376;28;20251;-54
2023/07/20 02:39:36;;;;;;;0.10;0.10;;;16.30;56.80;;;;;;5049897;28;20711;-53
2023/07/20 02:42:07;;;;;;;0.10;0.10;;;16.40;56.80;;;;;;5050368;28;20252;-53
2023/07/20 02:44:37;;;;;;;0.10;0.10;;;16.30;56.80;;;;;;5049942;28;20611;-53
2023/07/20 02:47:10;;;;;;;0.10;0.10;;;16.40;56.70;;;;;;5049524;28;20211;-50
2023/07/20 02:49:41;;;;;;;0.03;0.03;;;16.30;56.70;;;;;;5037830;28;20208;-53
2023/07/20 02:52:11;;;;;;;0.10;0.10;;;16.30;56.60;;;;;;5045143;28;20219;-52
2023/07/20 02:54:42;;;;;;;0.05;0.05;;;16.30;56.60;;;;;;5030026;28;20200;-50
2023/07/20 02:57:13;;;;;;;0.10;0.10;;;16.40;56.70;;;;;;5039312;28;20584;-53
2023/07/20 02:59:43;;;;;;;0.00;0.00;;;16.30;56.80;;;;;;5050937;28;20211;-53
2023/07/20 03:02:16;;;;;;;0.10;0.10;;;16.30;56.80;;;;;;5050996;28;20196;-53
2023/07/20 03:04:46;;;;;;;0.00;0.00;;;16.30;56.80;;;;;;5050960;28;20200;-52
2023/07/20 03:07:17;;;;;;;0.10;0.10;;;16.30;56.80;;;;;;5044999;28;20636;-52
2023/07/20 03:09:48;;;;;;;0.00;0.00;;;16.30;56.80;;;;;;5047520;28;20196;-51
2023/07/20 03:12:18;;;;;;;0.10;0.10;;;16.30;56.80;;;;;;5049160;28;20215;-50
2023/07/20 03:14:49;;;;;;;0.10;0.10;;;16.30;56.80;;;;;;5034179;28;20280;-50
2023/07/20 03:17:22;;;;;;;0.20;0.20;;;16.30;56.80;;;;;;5029586;28;20212;-50
2023/07/20 03:19:53;;;;;;;0.10;0.10;;;16.30;56.70;;;;;;5032162;28;20224;-51
2023/07/20 03:22:24;;;;;;;0.05;0.05;;;16.40;56.70;;;;;;5042485;28;20189;-55
2023/07/20 03:24:54;;;;;;;0.10;0.10;;;16.40;56.70;;;;;;5032957;28;20196;-52
2023/07/20 03:27:25;;;;;;;0.10;0.10;;;16.30;56.60;;;;;;5052723;28;20211;-49
2023/07/20 03:29:56;;;;;;;0.00;0.00;;;16.30;56.60;;;;;;5036871;28;20203;-52
2023/07/20 03:32:28;;;;;;;0.10;0.10;;;16.30;56.60;;;;;;5032477;28;20620;-54
2023/07/20 03:34:59;;;;;;;0.10;0.10;;;16.30;56.60;;;;;;5036417;28;20687;-53
2023/07/20 03:37:29;;;;;;;0.10;0.10;;;16.30;56.60;;;;;;5052485;28;20203;-55
2023/07/20 03:40:00;;;;;;;0.03;0.03;;;16.30;56.60;;;;;;5035366;28;20204;-53
2023/07/20 03:42:30;;;;;;;0.10;0.10;;;16.30;56.60;;;;;;5037545;28;20249;-52
2023/07/20 03:45:02;;;;;;;0.00;0.00;;;16.30;56.60;;;;;;5053957;28;20191;-53
2023/07/20 03:47:35;;;;;;;0.00;0.00;;;16.30;56.60;;;;;;5052639;28;20200;-50
2023/07/20 03:50:05;;;;;;;0.05;0.05;;;16.30;56.60;;;;;;5049880;28;20211;-52
2023/07/20 03:52:36;;;;;;;0.08;0.08;;;16.30;56.60;;;;;;5037659;28;20224;-54
2023/07/20 03:55:07;;;;;;;0.10;0.10;;;16.30;56.60;;;;;;5052621;28;20195;-56
2023/07/20 03:57:38;;;;;;;0.10;0.10;;;16.30;56.60;;;;;;5052859;28;20215;-51
2023/07/20 04:00:09;;;;;;;0.03;0.03;;;16.30;56.60;;;;;;5036830;28;20208;-54
2023/07/20 04:02:42;;;;;;;0.10;0.10;;;16.30;56.60;;;;;;5041727;28;20275;-50
2023/07/20 04:05:13;;;;;;;0.00;0.00;;;16.30;56.60;;;;;;5038654;28;20204;-54
2023/07/20 04:07:43;;;;;;;0.10;0.10;;;16.30;56.50;;;;;;5046315;28;20220;-54
2023/07/20 04:10:14;;;;;;;0.00;0.00;;;16.30;56.50;;;;;;5053073;28;20551;-56
2023/07/20 04:12:45;;;;;;;0.10;0.10;;;16.30;56.50;;;;;;5051788;28;20222;-55
2023/07/20 04:15:19;;;;;;;0.08;0.08;;;16.30;56.60;;;;;;5036197;28;20200;-54
2023/07/20 04:17:51;;;;;;;0.00;0.00;;;16.30;56.60;;;;;;5037369;28;20709;-56
2023/07/20 04:20:22;;;;;;;0.10;0.10;;;16.30;56.60;;;;;;5040447;28;20249;-56
2023/07/20 04:22:53;;;;;;;0.10;0.10;;;16.20;56.60;;;;;;5037714;28;20582;-55
2023/07/20 04:25:24;;;;;;;0.10;0.10;;;16.30;56.60;;;;;;5053248;28;20545;-55
2023/07/20 04:27:55;;;;;;;0.10;0.10;;;16.20;56.60;;;;;;5052492;28;20257;-58
2023/07/20 04:30:26;;;;;;;0.10;0.10;;;16.30;56.80;;;;;;5033172;28;20211;-52
2023/07/20 04:32:58;;;;;;;0.10;0.10;;;16.30;56.80;;;;;;5037131;28;20268;-53
2023/07/20 04:35:50;;;;;;;0.10;0.10;;;16.20;56.90;;;;;;5052987;28;20203;-54
2023/07/20 04:38:21;;;;;;;0.10;0.10;;;16.20;56.90;;;;;;5050640;28;20199;-51
2023/07/20 04:40:53;;;;;;;0.10;0.10;;;16.30;57.00;;;;;;5032558;28;20616;-53
2023/07/20 04:43:23;;;;;;;0.00;0.00;;;16.30;57.00;;;;;;5032473;28;20200;-53
2023/07/20 04:45:54;;;;;;;0.10;0.10;;;16.30;56.90;;;;;;5032774;28;20196;-51
2023/07/20 04:48:26;;;;;;;0.10;0.10;;;16.30;56.80;;;;;;5034409;28;20192;-55
2023/07/20 04:50:57;;;;;;;0.10;0.10;;;16.30;56.80;;;;;;5031502;28;20242;-49
2023/07/20 04:53:28;;;;;;;0.10;0.10;;;16.30;56.70;;;;;;5039647;28;20306;-52
2023/07/20 04:55:59;;;;;;;0.10;0.10;;;16.30;56.70;;;;;;5051310;28;20199;-49
2023/07/20 04:58:29;;;;;;;0.10;0.10;;;16.20;56.60;;;;;;5041343;28;20200;-52
2023/07/20 05:01:00;;;;;;;0.00;0.00;;;16.20;56.70;;;;;;5037850;28;20205;-54
2023/07/20 05:03:32;;;;;;;0.10;0.10;;;16.20;56.60;;;;;;5044197;28;20207;-50
2023/07/20 05:06:03;;;;;;;0.10;0.10;;;16.20;56.70;;;;;;5042831;28;20678;-51
2023/07/20 05:08:34;;;;;;;0.10;0.10;;;16.20;56.60;;;;;;5043418;28;20200;-50
2023/07/20 05:11:04;;;;;;;0.10;0.10;;;16.20;56.60;;;;;;5032378;28;20687;-54
2023/07/20 05:13:35;;;;;;;0.10;0.10;;;16.20;56.60;;;;;;5044174;28;20591;-53
2023/07/20 05:16:06;;;;;;;0.10;0.10;;;16.20;56.60;;;;;;5051750;28;20607;-53
2023/07/20 05:18:38;;;;;;;0.10;0.10;;;16.20;56.60;;;;;;5051128;28;20192;-56
2023/07/20 05:21:10;;;;;;;0.10;0.10;;;16.20;56.60;;;;;;5035618;28;20200;-56
2023/07/20 05:23:41;;;;;;;0.10;0.10;;;16.20;56.60;;;;;;5036627;28;20197;-55
2023/07/20 05:26:12;;;;;;;0.00;0.00;;;16.20;56.60;;;;;;5050992;28;20265;-55
2023/07/20 05:28:43;;;;;;;0.10;0.10;;;16.20;56.60;;;;;;5047746;28;20203;-53
2023/07/20 05:31:13;;;;;;;0.10;0.10;;;16.20;56.60;;;;;;5051791;28;20226;-54
2023/07/20 05:33:46;;;;;;;0.10;0.10;;;16.20;57.20;;;;;;5043831;28;20220;-50
2023/07/20 05:36:16;;;;;;;0.10;0.10;;;16.20;56.60;;;;;;5043591;28;20286;-52
2023/07/20 05:38:48;;;;;;;0.00;0.00;;;16.20;56.60;;;;;;5051071;28;20196;-54
2023/07/20 05:41:18;;;;;;;0.08;0.08;;;16.20;56.60;;;;;;5050519;28;20616;-52
2023/07/20 05:43:49;;;;;;;0.10;0.10;;;16.20;56.60;;;;;;5042037;28;20192;-49
2023/07/20 05:46:20;;;;;;;0.00;0.00;;;16.10;56.60;;;;;;5030206;28;20710;-49
2023/07/20 05:48:53;;;;;;;0.10;0.10;;;16.10;56.60;;;;;;5050855;28;20241;-50
2023/07/20 05:51:23;;;;;;;0.10;0.10;;;16.10;56.60;;;;;;5037472;28;20203;-51
2023/07/20 05:53:54;;;;;;;0.10;0.10;;;16.10;56.60;;;;;;5031299;28;20231;-48
2023/07/20 05:56:25;;;;;;;0.10;0.10;;;16.10;56.60;;;;;;5030848;28;20216;-50
2023/07/20 05:58:55;;;;;;;0.00;0.00;;;16.20;56.70;;;;;;5031354;28;20197;-50
2023/07/20 06:01:28;;;;;;;0.10;0.10;;;16.10;56.60;;;;;;5039977;28;20208;-48
2023/07/20 06:04:00;;;;;;;0.08;0.08;;;16.10;56.60;;;;;;5034442;28;20196;-48
2023/07/20 06:06:31;;;;;;;0.10;0.10;;;16.10;56.60;;;;;;5049304;28;20222;-48
2023/07/20 06:09:04;;;;;;;0.03;0.03;;;16.10;56.60;;;;;;5031064;28;20200;-51
2023/07/20 06:11:34;;;;;;;0.10;0.10;;;16.10;56.60;;;;;;5031018;28;20227;-49
2023/07/20 06:14:05;;;;;;;0.10;0.10;;;16.10;56.60;;;;;;5030094;28;20640;-52
2023/07/20 06:16:36;;;;;;;0.10;0.10;;;16.10;56.60;;;;;;5030699;28;20212;-51
2023/07/20 06:19:10;;;;;;;0.10;0.10;;;16.10;56.60;;;;;;5029526;28;20680;-53
2023/07/20 06:21:42;;;;;;;0.10;0.10;;;16.10;56.70;;;;;;5042094;28;20739;-50
2023/07/20 06:24:12;;;;;;;0.10;0.10;;;16.10;56.60;;;;;;5050659;28;20260;-48
2023/07/20 06:26:43;;;;;;;0.00;0.00;;;16.10;56.70;;;;;;5050039;28;20212;-48
2023/07/20 06:29:13;;;;;;;0.10;0.10;;;16.10;56.70;;;;;;5045034;28;20198;-50
2023/07/20 06:31:46;;;;;;;0.10;0.10;;;16.10;56.70;;;;;;5041745;28;20212;-49
2023/07/20 06:34:19;;;;;;;0.10;0.10;;;16.10;56.70;;;;;;5032753;28;20755;-48
2023/07/20 06:36:50;;;;;;;0.10;0.10;;;16.10;56.80;;;;;;5040916;28;20226;-50
2023/07/20 06:39:21;;;;;;;0.10;0.10;;;16.10;56.70;;;;;;5039063;28;20204;-49
2023/07/20 06:41:52;;;;;;;0.08;0.08;;;16.10;56.80;;;;;;5046202;28;20825;-48
2023/07/20 06:44:22;;;;;;;0.10;0.10;;;16.10;56.80;;;;;;5050159;28;20203;-48
2023/07/20 06:46:53;;;;;;;0.10;0.10;;;16.10;56.80;;;;;;5038881;28;20208;-49
2023/07/20 06:49:32;;;;;;;0.08;0.08;;;16.10;56.80;;;;;;5035827;28;20195;-48
2023/07/20 06:52:02;;;;;;;0.00;0.00;;;16.10;56.90;;;;;;5036929;28;20725;-49
2023/07/20 06:54:33;;;;;;;0.10;0.10;;;16.10;56.90;;;;;;5030364;28;20274;-48
2023/07/20 06:57:04;;;;;;;0.00;0.00;;;16.00;56.90;;;;;;5029552;28;20220;-48
2023/07/20 06:59:34;;;;;;;0.10;0.10;;;16.10;56.90;;;;;;5033540;28;20201;-52
2023/07/20 07:02:05;;;;;;;0.10;0.10;;;16.10;56.90;;;;;;5046131;28;20218;-49
2023/07/20 07:04:37;;;;;;;0.10;0.10;;;16.10;56.90;;;;;;5053698;28;20203;-48
2023/07/20 07:07:08;;;;;;;0.03;0.03;;;16.10;56.90;;;;;;5044916;28;20232;-51
2023/07/20 07:09:39;;;;;;;0.10;0.10;;;16.00;56.80;;;;;;5053487;28;20203;-50
2023/07/20 07:12:11;;;;;;;0.10;0.10;;;16.10;56.90;;;;;;5041667;28;20200;-48
2023/07/20 07:14:41;;;;;;;0.10;0.10;;;16.00;56.80;;;;;;5034927;28;20215;-50
2023/07/20 07:17:12;;;;;;;0.00;0.00;;;16.10;56.80;;;;;;5044949;28;20211;-49
2023/07/20 07:19:44;;;;;;;0.00;0.00;;;16.10;56.80;;;;;;5051735;28;20196;-48
2023/07/20 07:22:15;;;;;;;0.08;0.08;;;16.00;56.80;;;;;;5039382;28;20246;-50
2023/07/20 07:24:46;;;;;;;0.08;0.08;;;16.00;56.80;;;;;;5033435;28;20212;-49
2023/07/20 07:27:17;;;;;;;0.10;0.10;;;16.00;56.80;;;;;;5041800;28;20298;-48
2023/07/20 07:29:48;;;;;;;0.00;0.00;;;16.00;56.70;;;;;;5045698;28;20275;-49
2023/07/20 07:32:19;;;;;;;0.10;0.10;;;16.00;56.70;;;;;;5033591;28;20283;-48
2023/07/20 07:34:51;;;;;;;0.00;0.00;;;16.00;56.70;;;;;;5034926;28;20232;-50
2023/07/20 07:37:22;;;;;;;0.10;0.10;;;16.00;56.70;;;;;;5032831;28;20224;-49
2023/07/20 07:39:53;;;;;;;0.08;0.08;;;16.00;56.70;;;;;;5033344;28;20204;-51
2023/07/20 07:42:23;;;;;;;0.10;0.10;;;16.00;56.70;;;;;;5040246;28;20192;-49
2023/07/20 07:44:54;;;;;;;0.00;0.00;;;16.00;56.80;;;;;;5053748;28;20207;-50
2023/07/20 07:47:24;;;;;;;0.10;0.10;;;16.00;56.70;;;;;;5052950;28;20215;-51
2023/07/20 07:49:57;;;;;;;0.00;0.00;;;16.00;56.70;;;;;;5053771;28;20671;-49
2023/07/20 07:52:27;;;;;;;0.10;0.10;;;16.00;56.70;;;;;;5053295;28;20599;-48
2023/07/20 07:54:58;;;;;;;0.10;0.10;;;16.00;56.70;;;;;;5053091;28;20586;-49
2023/07/20 07:57:29;;;;;;;0.03;0.03;;;16.00;56.70;;;;;;5053535;28;20219;-48
2023/07/20 07:59:59;;;;;;;0.10;0.10;;;16.00;56.70;;;;;;5053178;28;20195;-48
2023/07/20 08:02:30;;;;;;;0.10;0.10;;;16.00;56.60;;;;;;5052800;28;20230;-48
2023/07/20 08:05:02;;;;;;;0.10;0.10;;;16.00;56.60;;;;;;5053101;28;20210;-51
2023/07/20 08:07:33;;;;;;;0.10;0.10;;;16.00;56.60;;;;;;5036751;28;20274;-50
2023/07/20 08:10:04;;;;;;;0.10;0.10;;;16.00;56.60;;;;;;5032289;28;20204;-49
2023/07/20 08:12:35;;;;;;;0.10;0.10;;;15.90;56.60;;;;;;5047644;28;20202;-50
2023/07/20 08:15:06;;;;;;;0.10;0.10;;;15.90;56.50;;;;;;5035004;28;20232;-50
2023/07/20 08:17:37;;;;;;;0.00;0.00;;;16.00;56.60;;;;;;5032757;28;20220;-51
2023/07/20 08:20:12;;;;;;;0.10;0.10;;;15.90;56.60;;;;;;5032925;28;20205;-48
2023/07/20 08:22:42;;;;;;;0.10;0.10;;;15.90;56.60;;;;;;5050105;28;20209;-49
2023/07/20 08:25:13;;;;;;;0.10;0.10;;;15.90;56.60;;;;;;5052552;28;20196;-49
2023/07/20 08:27:46;;;;;;;0.10;0.10;;;15.90;56.60;;;;;;5052340;28;20284;-48
2023/07/20 08:30:16;;;;;;;0.10;0.10;;;15.90;56.60;;;;;;5038248;28;20651;-47
2023/07/20 08:32:47;;;;;;;0.10;0.10;;;15.90;56.60;;;;;;5042578;28;20206;-48
2023/07/20 08:35:19;;;;;;;0.00;0.00;;;15.90;56.60;;;;;;5038305;28;20207;-48
2023/07/20 08:37:50;;;;;;;0.10;0.10;;;15.90;56.60;;;;;;5052476;28;20706;-50
2023/07/20 08:40:21;;;;;;;0.10;0.10;;;15.90;56.50;;;;;;5052730;28;20204;-48
2023/07/20 08:42:53;;;;;;;0.10;0.10;;;15.90;56.50;;;;;;5052927;28;20249;-48
2023/07/20 08:45:24;;;;;;;0.10;0.10;;;15.90;56.50;;;;;;5044539;28;20221;-48
2023/07/20 08:47:55;;;;;;;0.17;0.17;;;15.90;56.50;;;;;;5032020;28;20227;-50
2023/07/20 08:50:29;;;;;;;0.10;0.10;;;15.90;56.50;;;;;;5032583;28;20291;-49
2023/07/20 08:53:01;;;;;;;0.10;0.10;;;15.90;56.50;;;;;;5032301;28;20300;-50
2023/07/20 08:55:32;;;;;;;0.10;0.10;;;15.90;56.50;;;;;;5032523;28;20207;-49
2023/07/20 08:58:05;;;;;;;0.10;0.10;;;15.80;56.50;;;;;;5032490;28;20248;-50
2023/07/20 09:00:36;;;;;;;0.10;0.10;;;15.80;56.40;;;;;;5040144;28;20190;-51
2023/07/20 09:03:07;;;;;;;0.00;0.00;;;15.80;56.40;;;;;;5041289;28;20200;-54
2023/07/20 09:05:40;;;;;;;0.10;0.10;;;15.80;56.40;;;;;;5049327;28;20200;-49
2023/07/20 09:08:11;;;;;;;0.10;0.10;;;15.80;56.50;;;;;;5052217;28;20552;-49
2023/07/20 09:10:41;;;;;;;0.05;0.05;;;15.80;56.40;;;;;;5052198;28;20245;-53
2023/07/20 09:13:16;;;;;;;0.10;0.10;;;15.80;56.40;;;;;;5052086;28;20248;-50
2023/07/20 09:15:50;;;;;;;0.13;0.13;;;15.80;56.40;;;;;;5051551;28;20206;-50
2023/07/20 09:18:28;;;;;;;0.15;0.15;;;15.80;56.40;;;;;;5048246;28;20643;-49
2023/07/20 09:21:05;;;;;;;0.10;0.10;;;15.80;56.40;;;;;;5031382;28;20246;-49
2023/07/20 09:23:37;;;;;;;0.20;0.20;;;15.80;56.40;;;;;;5034260;28;20203;-48
2023/07/20 09:26:15;;;;;;;0.10;0.10;;;15.80;56.40;;;;;;5032049;28;20199;-48
2023/07/20 09:28:46;;;;;;;0.10;0.10;;;15.80;56.40;;;;;;5032048;28;20615;-47
2023/07/20 09:31:23;;;;;;;0.10;0.10;;;15.80;56.40;;;;;;5031111;28;20602;-48
2023/07/20 09:33:56;;;;;;;0.00;0.00;;;15.80;56.40;;;;;;5031204;28;20227;-50
2023/07/20 09:36:31;;;;;;;0.10;0.10;;;15.80;56.40;;;;;;5045700;28;20223;-50
2023/07/20 09:39:03;;;;;;;0.10;0.10;;;15.80;56.40;;;;;;5051466;28;20256;-49
2023/07/20 09:41:43;;;;;;;0.10;0.10;;;15.80;56.40;;;;;;5051878;28;20195;-49
2023/07/20 09:44:15;;;;;;;0.10;0.10;;;15.80;56.40;;;;;;5051774;28;20274;-49
2023/07/20 09:46:47;;;;;;;0.10;0.10;;;15.70;56.40;;;;;;5050785;28;20261;-47
2023/07/20 09:49:19;;;;;;;0.10;0.10;;;15.80;56.40;;;;;;5049545;28;20204;-48
2023/07/20 09:51:53;;;;;;;0.10;0.10;;;15.80;56.40;;;;;;5051282;28;20699;-49
2023/07/20 09:54:26;;;;;;;0.10;0.10;;;15.70;56.40;;;;;;5050730;28;20223;-47
2023/07/20 09:56:58;;;;;;;0.08;0.08;;;15.80;56.50;;;;;;5051364;28;20219;-48
2023/07/20 09:59:29;;;;;;;0.10;0.10;;;15.80;56.50;;;;;;5040214;28;20204;-47
2023/07/20 10:02:02;;;;;;;0.10;0.10;;;15.70;56.40;;;;;;5031072;28;20200;-49
2023/07/20 10:04:36;;;;;;;0.10;0.10;;;15.70;56.40;;;;;;5031272;28;20342;-47
2023/07/20 10:07:12;;;;;;;0.05;0.05;;;15.80;56.40;;;;;;5039801;28;20234;-51
2023/07/20 10:09:44;;;;;;;0.10;0.10;;;15.80;56.50;;;;;;5031622;28;20242;-52
2023/07/20 10:12:15;;;;;;;0.05;0.05;;;15.80;56.50;;;;;;5031084;28;20203;-49
2023/07/20 10:14:52;;;;;;;0.10;0.10;;;15.70;57.10;;;;;;5034599;28;20230;-49
2023/07/20 10:17:24;;;;;;;0.10;0.10;;;15.70;56.50;;;;;;5031863;28;20632;-52
2023/07/20 10:19:59;;;;;;;0.10;0.10;;;15.70;57.10;;;;;;5040406;28;20192;-49
2023/07/20 10:22:38;;;;;;;0.10;0.10;;;15.70;56.50;;;;;;5030873;28;20655;-49
2023/07/20 10:25:09;;;;;;;0.10;0.10;;;15.70;56.50;;;;;;5030692;28;20196;-50
2023/07/20 10:27:41;;;;;;;0.05;0.05;;;15.80;56.50;;;;;;5030591;28;20219;-53
2023/07/20 10:30:12;;;;;;;0.10;0.10;;;15.70;56.50;;;;;;5045748;28;20304;-50
2023/07/20 10:32:44;;;;;;;0.10;0.10;;;15.70;56.50;;;;;;5044051;28;20215;-50
2023/07/20 10:35:19;;;;;;;0.10;0.10;;;15.70;56.50;;;;;;5050660;28;20296;-50
2023/07/20 10:37:53;;;;;;;0.10;0.10;;;15.70;56.50;;;;;;5054952;28;20215;-48
2023/07/20 10:40:35;;;;;;;0.08;0.08;;;15.70;56.40;;;;;;5054014;28;20198;-49
2023/07/20 10:43:07;;;;;;;0.10;0.10;;;15.70;56.40;;;;;;5054820;28;20367;-49
2023/07/20 10:45:39;;;;;;;0.10;0.10;;;15.70;56.40;;;;;;5050749;28;20192;-50
2023/07/20 10:48:16;;;;;;;0.10;0.10;;;15.70;56.40;;;;;;5054982;28;20664;-48
2023/07/20 10:50:47;;;;;;;0.00;0.00;;;15.70;56.40;;;;;;5043102;28;20629;-49
2023/07/20 10:53:20;;;;;;;0.10;0.10;;;15.70;56.40;;;;;;5054504;28;20647;-48
2023/07/20 10:56:08;;;;;;;0.10;0.10;;;15.70;56.40;;;;;;5035042;28;20223;-49
2023/07/20 10:58:38;;;;;;;0.10;0.10;;;15.70;56.40;;;;;;5034539;28;20219;-48
2023/07/20 11:01:09;;;;;;;0.10;0.10;;;15.70;56.40;;;;;;5055038;28;20198;-49
2023/07/20 11:03:41;;;;;;;0.10;0.10;;;15.70;56.40;;;;;;5052836;28;20192;-49
2023/07/20 11:06:38;;;;;;;0.10;0.10;;;15.70;56.40;;;;;;5054144;28;20249;-49
2023/07/20 11:09:14;;;;;;;0.10;0.10;;;15.60;56.30;;;;;;5045649;28;20192;-50
2023/07/20 11:11:45;;;;;;;0.10;0.10;;;15.70;56.40;;;;;;5034714;28;20659;-48
2023/07/20 11:14:26;;;;;;;0.10;0.10;;;15.70;56.40;;;;;;5040988;28;20583;-49
2023/07/20 11:16:57;;;;;;;0.10;0.10;;;15.70;56.40;;;;;;5039187;28;20269;-49
2023/07/20 11:19:28;;;;;;;0.10;0.10;;;15.70;56.40;;;;;;5039613;28;20195;-49
2023/07/20 11:21:59;;;;;;;0.10;0.10;;;15.70;56.40;;;;;;5047806;28;20555;-49
2023/07/20 11:24:32;;;;;;;0.10;0.10;;;15.70;56.40;;;;;;5040029;28;20261;-50
2023/07/20 11:27:03;;;;;;;0.05;0.05;;;15.70;56.40;;;;;;5054245;28;20222;-49
2023/07/20 11:29:34;;;;;;;0.10;0.10;;;15.70;56.40;;;;;;5054118;28;20195;-51
2023/07/20 11:32:05;;;;;;;0.10;0.10;;;15.70;56.40;;;;;;5053587;28;20206;-48
2023/07/20 11:34:36;;;;;;;0.10;0.10;;;15.60;56.30;;;;;;5053392;28;20734;-51
2023/07/20 11:37:08;;;;;;;0.10;0.10;;;15.70;56.40;;;;;;5054051;28;20258;-49
2023/07/20 11:39:41;;;;;;;0.10;0.10;;;15.60;56.30;;;;;;5054015;28;20195;-52
2023/07/20 11:42:12;;;;;;;0.10;0.10;;;15.60;56.30;;;;;;5040787;28;20193;-49
2023/07/20 11:44:43;;;;;;;0.10;0.10;;;15.70;56.40;;;;;;5040525;28;20188;-51
2023/07/20 11:47:14;;;;;;;0.00;0.00;;;15.60;56.30;;;;;;5053276;28;20691;-49
2023/07/20 11:49:54;;;;;;;0.00;0.00;;;15.70;56.40;;;;;;5053590;28;20533;-52
2023/07/20 11:52:27;;;;;;;0.10;0.10;;;15.60;56.30;;;;;;5053142;28;20201;-53
2023/07/20 11:55:00;;;;;;;0.10;0.10;;;15.70;56.40;;;;;;5053057;28;20230;-52
2023/07/20 11:57:31;;;;;;;0.08;0.08;;;15.70;56.40;;;;;;5053164;28;20707;-52
2023/07/20 12:00:05;;;;;;;0.10;0.10;;;15.70;56.40;;;;;;5045995;28;20192;-52
2023/07/20 12:02:36;;;;;;;0.10;0.10;;;15.70;56.40;;;;;;5032998;28;20605;-50
2023/07/20 12:05:08;;;;;;;0.08;0.08;;;15.60;56.90;;;;;;5042138;28;20235;-51
2023/07/20 12:07:40;;;;;;;0.00;0.00;;;15.60;56.30;;;;;;5053087;28;20721;-49
2023/07/20 12:10:15;;;;;;;0.10;0.10;;;15.60;56.30;;;;;;5045566;28;20507;-50
2023/07/20 12:12:46;;;;;;;0.10;0.10;;;15.60;56.30;;;;;;5052885;28;20195;-49
2023/07/20 12:15:18;;;;;;;0.08;0.08;;;15.60;56.90;;;;;;5052490;28;20246;-52
2023/07/20 12:17:51;;;;;;;0.10;0.10;;;15.60;56.30;;;;;;5051924;28;20223;-50
2023/07/20 12:20:32;;;;;;;0.10;0.10;;;15.60;56.30;;;;;;5045114;28;20655;-49
2023/07/20 12:23:04;;;;;;;0.10;0.10;;;15.60;56.30;;;;;;5052830;28;20253;-49
2023/07/20 12:25:41;;;;;;;0.10;0.10;;;15.60;56.80;;;;;;5052760;28;20199;-49
2023/07/20 12:28:13;;;;;;;0.10;0.10;;;15.60;56.30;;;;;;5052768;28;20218;-51
2023/07/20 12:30:45;;;;;;;0.10;0.10;;;15.60;56.30;;;;;;5051917;28;20207;-53
2023/07/20 12:33:16;;;;;;;0.10;0.10;;;15.60;56.30;;;;;;5052629;28;20652;-49
2023/07/20 12:35:46;;;;;;;0.10;0.10;;;15.60;56.30;;;;;;5052830;28;20219;-50
2023/07/20 12:38:17;;;;;;;0.10;0.10;;;15.60;56.30;;;;;;5052409;28;20222;-49
2023/07/20 12:40:50;;;;;;;0.10;0.10;;;15.60;56.30;;;;;;5052209;28;20226;-51
2023/07/20 12:43:21;;;;;;;0.13;0.13;;;15.60;56.30;;;;;;5052635;28;20553;-49
2023/07/20 12:45:51;;;;;;;0.20;0.20;;;15.60;56.30;;;;;;5052130;28;20253;-51
2023/07/20 12:48:22;;;;;;;0.10;0.10;;;15.60;56.30;;;;;;5051578;28;20261;-51
2023/07/20 12:50:52;;;;;;;0.10;0.10;;;15.60;56.20;;;;;;5048096;28;20187;-52
2023/07/20 12:53:23;;;;;;;0.10;0.10;;;15.60;56.20;;;;;;5051696;28;20207;-52
2023/07/20 12:55:56;;;;;;;0.10;0.10;;;15.50;56.20;;;;;;5052330;28;20223;-52
2023/07/20 12:58:26;;;;;;;0.10;0.10;;;15.50;56.20;;;;;;5052970;28;20203;-50
2023/07/20 13:00:57;;;;;;;0.10;0.10;;;15.50;56.10;;;;;;5052850;28;20191;-49
2023/07/20 13:03:28;;;;;;;0.10;0.10;;;15.50;56.10;;;;;;5052515;28;20203;-51
2023/07/20 13:05:58;;;;;;;0.10;0.10;;;15.50;56.10;;;;;;5048831;28;20202;-50
2023/07/20 13:08:29;;;;;;;0.10;0.10;;;15.50;56.10;;;;;;5048724;28;20191;-50
2023/07/20 13:11:01;;;;;;;0.03;0.03;;;15.50;56.10;;;;;;5051749;28;20540;-50
2023/07/20 13:13:32;;;;;;;0.10;0.10;;;15.50;56.10;;;;;;5051953;28;20671;-52